sensor_id;sensor_type;location;lat;lon;timestamp;P1;durP1;ratioP1;P2;durP2;ratioP2
80619;SDS011;69979;53.682;-2.690;2023-10-08T00:00:40;17;;;16;;
80619;SDS011;69979;53.682;-2.690;2023-10-08T00:03:06;15;;;15;;
80619;SDS011;69979;53.682;-2.690;2023-10-08T00:05:34;18;;;18;;
80619;SDS011;69979;53.682;-2.690;2023-10-08T00:07:57;17;;;17;;
80619;SDS011;69979;53.682;-2.690;2023-10-08T00:10:22;17;;;15;;
80619;SDS011;69979;53.682;-2.690;2023-10-08T00:12:47;17;;;16;;
80619;SDS011;69979;53.682;-2.690;2023-10-08T00:15:13;17;;;17;;
80619;SDS011;69979;53.682;-2.690;2023-10-08T00:17:38;17;;;16;;
80619;SDS011;69979;53.682;-2.690;2023-10-08T00:20:04;17;;;16;;
80619;SDS011;69979;53.682;-2.690;2023-10-08T00:22:29;17;;;15;;
80619;SDS011;69979;53.682;-2.690;2023-10-08T00:24:54;15;;;13;;
80619;SDS011;69979;53.682;-2.690;2023-10-08T00:27:20;15;;;14;;
80619;SDS011;69979;53.682;-2.690;2023-10-08T00:29:45;15;;;15;;
80619;SDS011;69979;53.682;-2.690;2023-10-08T00:32:10;17;;;15;;
80619;SDS011;69979;53.682;-2.690;2023-10-08T00:34:36;13;;;13;;
80619;SDS011;69979;53.682;-2.690;2023-10-08T00:37:01;17;;;15;;
80619;SDS011;69979;53.682;-2.690;2023-10-08T00:39:26;15;;;13;;
80619;SDS011;69979;53.682;-2.690;2023-10-08T00:41:52;16;;;15;;
80619;SDS011;69979;53.682;-2.690;2023-10-08T00:44:17;16;;;14;;
80619;SDS011;69979;53.682;-2.690;2023-10-08T00:46:42;16;;;15;;
80619;SDS011;69979;53.682;-2.690;2023-10-08T00:49:07;16;;;15;;
80619;SDS011;69979;53.682;-2.690;2023-10-08T00:51:33;14;;;13;;
80619;SDS011;69979;53.682;-2.690;2023-10-08T00:53:59;13;;;13;;
80619;SDS011;69979;53.682;-2.690;2023-10-08T00:56:24;16;;;16;;
80619;SDS011;69979;53.682;-2.690;2023-10-08T00:58:49;14;;;14;;
80619;SDS011;69979;53.682;-2.690;2023-10-08T01:01:14;17;;;15;;
80619;SDS011;69979;53.682;-2.690;2023-10-08T01:03:40;15;;;15;;
80619;SDS011;69979;53.682;-2.690;2023-10-08T01:06:05;20;;;19;;
80619;SDS011;69979;53.682;-2.690;2023-10-08T01:08:30;14;;;12;;
80619;SDS011;69979;53.682;-2.690;2023-10-08T01:10:55;19;;;19;;
80619;SDS011;69979;53.682;-2.690;2023-10-08T01:13:21;18;;;17;;
80619;SDS011;69979;53.682;-2.690;2023-10-08T01:15:46;18;;;15;;
80619;SDS011;69979;53.682;-2.690;2023-10-08T01:18:12;20;;;17;;
80619;SDS011;69979;53.682;-2.690;2023-10-08T01:20:37;18;;;15;;
80619;SDS011;69979;53.682;-2.690;2023-10-08T01:23:03;18;;;17;;
80619;SDS011;69979;53.682;-2.690;2023-10-08T01:25:28;14;;;13;;
80619;SDS011;69979;53.682;-2.690;2023-10-08T01:27:55;17;;;17;;
80619;SDS011;69979;53.682;-2.690;2023-10-08T01:30:18;15;;;14;;
80619;SDS011;69979;53.682;-2.690;2023-10-08T01:32:44;14;;;14;;
80619;SDS011;69979;53.682;-2.690;2023-10-08T01:35:09;16;;;15;;
80619;SDS011;69979;53.682;-2.690;2023-10-08T01:37:34;14;;;13;;
80619;SDS011;69979;53.682;-2.690;2023-10-08T01:39:59;13;;;13;;
80619;SDS011;69979;53.682;-2.690;2023-10-08T01:42:24;13;;;12;;
80619;SDS011;69979;53.682;-2.690;2023-10-08T01:44:49;14;;;13;;
80619;SDS011;69979;53.682;-2.690;2023-10-08T01:47:15;14;;;14;;
80619;SDS011;69979;53.682;-2.690;2023-10-08T01:49:40;12;;;12;;
80619;SDS011;69979;53.682;-2.690;2023-10-08T01:52:05;12;;;11;;
80619;SDS011;69979;53.682;-2.690;2023-10-08T01:54:31;9;;;9;;
80619;SDS011;69979;53.682;-2.690;2023-10-08T01:56:56;13;;;13;;
80619;SDS011;69979;53.682;-2.690;2023-10-08T01:59:22;16;;;15;;
80619;SDS011;69979;53.682;-2.690;2023-10-08T02:01:47;16;;;16;;
80619;SDS011;69979;53.682;-2.690;2023-10-08T02:04:13;14;;;12;;
80619;SDS011;69979;53.682;-2.690;2023-10-08T02:06:38;15;;;13;;
80619;SDS011;69979;53.682;-2.690;2023-10-08T02:09:03;14;;;14;;
80619;SDS011;69979;53.682;-2.690;2023-10-08T02:11:28;15;;;14;;
80619;SDS011;69979;53.682;-2.690;2023-10-08T02:13:54;16;;;15;;
80619;SDS011;69979;53.682;-2.690;2023-10-08T02:16:20;14;;;13;;
80619;SDS011;69979;53.682;-2.690;2023-10-08T02:18:44;20;;;17;;
80619;SDS011;69979;53.682;-2.690;2023-10-08T02:21:10;17;;;16;;
80619;SDS011;69979;53.682;-2.690;2023-10-08T02:23:35;14;;;12;;
80619;SDS011;69979;53.682;-2.690;2023-10-08T02:26:01;15;;;14;;
80619;SDS011;69979;53.682;-2.690;2023-10-08T02:28:26;15;;;14;;
80619;SDS011;69979;53.682;-2.690;2023-10-08T02:30:51;14;;;12;;
80619;SDS011;69979;53.682;-2.690;2023-10-08T02:33:17;14;;;14;;
80619;SDS011;69979;53.682;-2.690;2023-10-08T02:35:42;11;;;11;;
80619;SDS011;69979;53.682;-2.690;2023-10-08T02:38:08;15;;;13;;
80619;SDS011;69979;53.682;-2.690;2023-10-08T02:40:33;11;;;11;;
80619;SDS011;69979;53.682;-2.690;2023-10-08T02:42:58;14;;;13;;
80619;SDS011;69979;53.682;-2.690;2023-10-08T02:45:24;14;;;13;;
80619;SDS011;69979;53.682;-2.690;2023-10-08T02:47:49;11;;;11;;
80619;SDS011;69979;53.682;-2.690;2023-10-08T02:50:14;16;;;14;;
80619;SDS011;69979;53.682;-2.690;2023-10-08T02:52:39;13;;;12;;
80619;SDS011;69979;53.682;-2.690;2023-10-08T02:55:05;14;;;13;;
80619;SDS011;69979;53.682;-2.690;2023-10-08T02:57:30;12;;;12;;
80619;SDS011;69979;53.682;-2.690;2023-10-08T02:59:56;9;;;9;;
80619;SDS011;69979;53.682;-2.690;2023-10-08T03:02:21;13;;;13;;
80619;SDS011;69979;53.682;-2.690;2023-10-08T03:04:46;12;;;11;;
80619;SDS011;69979;53.682;-2.690;2023-10-08T03:07:11;12;;;12;;
80619;SDS011;69979;53.682;-2.690;2023-10-08T03:09:37;12;;;11;;
80619;SDS011;69979;53.682;-2.690;2023-10-08T03:12:02;13;;;12;;
80619;SDS011;69979;53.682;-2.690;2023-10-08T03:14:27;14;;;12;;
80619;SDS011;69979;53.682;-2.690;2023-10-08T03:16:53;11;;;11;;
80619;SDS011;69979;53.682;-2.690;2023-10-08T03:19:18;14;;;13;;
80619;SDS011;69979;53.682;-2.690;2023-10-08T03:21:43;11;;;10;;
80619;SDS011;69979;53.682;-2.690;2023-10-08T03:24:09;15;;;15;;
80619;SDS011;69979;53.682;-2.690;2023-10-08T03:26:34;12;;;12;;
80619;SDS011;69979;53.682;-2.690;2023-10-08T03:29:00;10;;;9;;
80619;SDS011;69979;53.682;-2.690;2023-10-08T03:31:25;13;;;13;;
80619;SDS011;69979;53.682;-2.690;2023-10-08T03:33:50;14;;;14;;
80619;SDS011;69979;53.682;-2.690;2023-10-08T03:36:15;15;;;15;;
80619;SDS011;69979;53.682;-2.690;2023-10-08T03:38:40;13;;;13;;
80619;SDS011;69979;53.682;-2.690;2023-10-08T03:41:05;13;;;11;;
80619;SDS011;69979;53.682;-2.690;2023-10-08T03:43:31;14;;;13;;
80619;SDS011;69979;53.682;-2.690;2023-10-08T03:45:56;14;;;14;;
80619;SDS011;69979;53.682;-2.690;2023-10-08T03:48:21;19;;;18;;
80619;SDS011;69979;53.682;-2.690;2023-10-08T03:50:46;16;;;15;;
80619;SDS011;69979;53.682;-2.690;2023-10-08T03:53:12;12;;;11;;
80619;SDS011;69979;53.682;-2.690;2023-10-08T03:55:38;14;;;13;;
80619;SDS011;69979;53.682;-2.690;2023-10-08T03:58:03;16;;;15;;
80619;SDS011;69979;53.682;-2.690;2023-10-08T04:00:28;13;;;13;;
80619;SDS011;69979;53.682;-2.690;2023-10-08T04:02:53;13;;;13;;
80619;SDS011;69979;53.682;-2.690;2023-10-08T04:05:18;14;;;13;;
80619;SDS011;69979;53.682;-2.690;2023-10-08T04:07:44;15;;;13;;
80619;SDS011;69979;53.682;-2.690;2023-10-08T04:10:10;14;;;14;;
80619;SDS011;69979;53.682;-2.690;2023-10-08T04:12:35;11;;;11;;
80619;SDS011;69979;53.682;-2.690;2023-10-08T04:15:01;12;;;12;;
80619;SDS011;69979;53.682;-2.690;2023-10-08T04:17:26;13;;;12;;
80619;SDS011;69979;53.682;-2.690;2023-10-08T04:19:51;14;;;14;;
80619;SDS011;69979;53.682;-2.690;2023-10-08T04:22:16;13;;;13;;
80619;SDS011;69979;53.682;-2.690;2023-10-08T04:24:41;12;;;12;;
80619;SDS011;69979;53.682;-2.690;2023-10-08T04:27:07;14;;;14;;
80619;SDS011;69979;53.682;-2.690;2023-10-08T04:29:32;12;;;12;;
80619;SDS011;69979;53.682;-2.690;2023-10-08T04:31:58;12;;;11;;
80619;SDS011;69979;53.682;-2.690;2023-10-08T04:34:23;15;;;14;;
80619;SDS011;69979;53.682;-2.690;2023-10-08T04:36:48;11;;;11;;
80619;SDS011;69979;53.682;-2.690;2023-10-08T04:39:14;11;;;11;;
80619;SDS011;69979;53.682;-2.690;2023-10-08T04:41:39;13;;;13;;
80619;SDS011;69979;53.682;-2.690;2023-10-08T04:44:04;13;;;12;;
80619;SDS011;69979;53.682;-2.690;2023-10-08T04:46:29;16;;;15;;
80619;SDS011;69979;53.682;-2.690;2023-10-08T04:48:55;11;;;11;;
80619;SDS011;69979;53.682;-2.690;2023-10-08T04:51:20;15;;;14;;
80619;SDS011;69979;53.682;-2.690;2023-10-08T04:53:45;14;;;14;;
80619;SDS011;69979;53.682;-2.690;2023-10-08T04:56:11;17;;;15;;
80619;SDS011;69979;53.682;-2.690;2023-10-08T04:58:36;13;;;12;;
80619;SDS011;69979;53.682;-2.690;2023-10-08T05:01:02;14;;;13;;
80619;SDS011;69979;53.682;-2.690;2023-10-08T05:03:27;15;;;15;;
80619;SDS011;69979;53.682;-2.690;2023-10-08T05:05:52;15;;;13;;
80619;SDS011;69979;53.682;-2.690;2023-10-08T05:08:17;13;;;12;;
80619;SDS011;69979;53.682;-2.690;2023-10-08T05:10:43;15;;;15;;
80619;SDS011;69979;53.682;-2.690;2023-10-08T05:13:08;14;;;14;;
80619;SDS011;69979;53.682;-2.690;2023-10-08T05:15:33;17;;;15;;
80619;SDS011;69979;53.682;-2.690;2023-10-08T05:17:59;15;;;14;;
80619;SDS011;69979;53.682;-2.690;2023-10-08T05:20:24;14;;;12;;
80619;SDS011;69979;53.682;-2.690;2023-10-08T05:22:49;17;;;16;;
80619;SDS011;69979;53.682;-2.690;2023-10-08T05:25:14;16;;;16;;
80619;SDS011;69979;53.682;-2.690;2023-10-08T05:27:39;13;;;13;;
80619;SDS011;69979;53.682;-2.690;2023-10-08T05:30:05;15;;;15;;
80619;SDS011;69979;53.682;-2.690;2023-10-08T05:32:30;16;;;16;;
80619;SDS011;69979;53.682;-2.690;2023-10-08T05:34:55;13;;;13;;
80619;SDS011;69979;53.682;-2.690;2023-10-08T05:37:20;12;;;12;;
80619;SDS011;69979;53.682;-2.690;2023-10-08T05:39:46;14;;;14;;
80619;SDS011;69979;53.682;-2.690;2023-10-08T05:42:11;17;;;14;;
80619;SDS011;69979;53.682;-2.690;2023-10-08T05:44:36;16;;;16;;
80619;SDS011;69979;53.682;-2.690;2023-10-08T05:47:02;12;;;11;;
80619;SDS011;69979;53.682;-2.690;2023-10-08T05:49:27;14;;;14;;
80619;SDS011;69979;53.682;-2.690;2023-10-08T05:51:52;16;;;15;;
80619;SDS011;69979;53.682;-2.690;2023-10-08T05:54:18;13;;;13;;
80619;SDS011;69979;53.682;-2.690;2023-10-08T05:56:43;14;;;14;;
80619;SDS011;69979;53.682;-2.690;2023-10-08T05:59:09;13;;;12;;
80619;SDS011;69979;53.682;-2.690;2023-10-08T06:01:34;17;;;17;;
80619;SDS011;69979;53.682;-2.690;2023-10-08T06:03:59;14;;;14;;
80619;SDS011;69979;53.682;-2.690;2023-10-08T06:06:24;19;;;17;;
80619;SDS011;69979;53.682;-2.690;2023-10-08T06:08:50;16;;;16;;
80619;SDS011;69979;53.682;-2.690;2023-10-08T06:11:16;14;;;14;;
80619;SDS011;69979;53.682;-2.690;2023-10-08T06:13:40;15;;;14;;
80619;SDS011;69979;53.682;-2.690;2023-10-08T06:16:06;16;;;15;;
80619;SDS011;69979;53.682;-2.690;2023-10-08T06:18:32;16;;;15;;
80619;SDS011;69979;53.682;-2.690;2023-10-08T06:20:57;19;;;17;;
80619;SDS011;69979;53.682;-2.690;2023-10-08T06:23:22;16;;;16;;
80619;SDS011;69979;53.682;-2.690;2023-10-08T06:25:47;14;;;14;;
80619;SDS011;69979;53.682;-2.690;2023-10-08T06:28:13;16;;;15;;
80619;SDS011;69979;53.682;-2.690;2023-10-08T06:30:39;13;;;13;;
80619;SDS011;69979;53.682;-2.690;2023-10-08T06:33:04;13;;;13;;
80619;SDS011;69979;53.682;-2.690;2023-10-08T06:35:29;12;;;12;;
80619;SDS011;69979;53.682;-2.690;2023-10-08T06:37:54;17;;;14;;
80619;SDS011;69979;53.682;-2.690;2023-10-08T06:40:20;15;;;14;;
80619;SDS011;69979;53.682;-2.690;2023-10-08T06:42:45;16;;;15;;
80619;SDS011;69979;53.682;-2.690;2023-10-08T06:45:10;14;;;13;;
80619;SDS011;69979;53.682;-2.690;2023-10-08T06:47:36;13;;;13;;
80619;SDS011;69979;53.682;-2.690;2023-10-08T06:50:01;18;;;18;;
80619;SDS011;69979;53.682;-2.690;2023-10-08T06:52:27;15;;;15;;
80619;SDS011;69979;53.682;-2.690;2023-10-08T06:54:52;15;;;15;;
80619;SDS011;69979;53.682;-2.690;2023-10-08T06:57:18;15;;;14;;
80619;SDS011;69979;53.682;-2.690;2023-10-08T06:59:43;17;;;17;;
80619;SDS011;69979;53.682;-2.690;2023-10-08T07:02:08;15;;;14;;
80619;SDS011;69979;53.682;-2.690;2023-10-08T07:04:33;16;;;15;;
80619;SDS011;69979;53.682;-2.690;2023-10-08T07:06:59;15;;;14;;
80619;SDS011;69979;53.682;-2.690;2023-10-08T07:09:24;17;;;17;;
80619;SDS011;69979;53.682;-2.690;2023-10-08T07:11:49;16;;;16;;
80619;SDS011;69979;53.682;-2.690;2023-10-08T07:14:15;19;;;18;;
80619;SDS011;69979;53.682;-2.690;2023-10-08T07:16:40;15;;;15;;
80619;SDS011;69979;53.682;-2.690;2023-10-08T07:19:06;17;;;17;;
80619;SDS011;69979;53.682;-2.690;2023-10-08T07:21:31;14;;;14;;
80619;SDS011;69979;53.682;-2.690;2023-10-08T07:23:56;14;;;14;;
80619;SDS011;69979;53.682;-2.690;2023-10-08T07:26:22;13;;;13;;
80619;SDS011;69979;53.682;-2.690;2023-10-08T07:28:47;12;;;11;;
80619;SDS011;69979;53.682;-2.690;2023-10-08T07:31:13;14;;;13;;
80619;SDS011;69979;53.682;-2.690;2023-10-08T07:33:38;12;;;12;;
80619;SDS011;69979;53.682;-2.690;2023-10-08T07:36:04;12;;;11;;
80619;SDS011;69979;53.682;-2.690;2023-10-08T07:38:29;11;;;10;;
80619;SDS011;69979;53.682;-2.690;2023-10-08T07:40:55;13;;;12;;
80619;SDS011;69979;53.682;-2.690;2023-10-08T07:43:20;14;;;13;;
80619;SDS011;69979;53.682;-2.690;2023-10-08T07:45:46;14;;;12;;
80619;SDS011;69979;53.682;-2.690;2023-10-08T07:48:11;10;;;9;;
80619;SDS011;69979;53.682;-2.690;2023-10-08T07:50:40;11;;;11;;
80619;SDS011;69979;53.682;-2.690;2023-10-08T07:53:02;13;;;12;;
80619;SDS011;69979;53.682;-2.690;2023-10-08T07:55:27;12;;;11;;
80619;SDS011;69979;53.682;-2.690;2023-10-08T07:57:53;13;;;13;;
80619;SDS011;69979;53.682;-2.690;2023-10-08T08:00:18;11;;;11;;
80619;SDS011;69979;53.682;-2.690;2023-10-08T08:02:44;13;;;13;;
80619;SDS011;69979;53.682;-2.690;2023-10-08T08:05:10;13;;;13;;
80619;SDS011;69979;53.682;-2.690;2023-10-08T08:07:35;13;;;13;;
80619;SDS011;69979;53.682;-2.690;2023-10-08T08:10:00;12;;;12;;
80619;SDS011;69979;53.682;-2.690;2023-10-08T08:12:26;12;;;12;;
80619;SDS011;69979;53.682;-2.690;2023-10-08T08:14:51;12;;;12;;
80619;SDS011;69979;53.682;-2.690;2023-10-08T08:17:17;11;;;11;;
80619;SDS011;69979;53.682;-2.690;2023-10-08T08:19:42;13;;;12;;
80619;SDS011;69979;53.682;-2.690;2023-10-08T08:22:07;12;;;12;;
80619;SDS011;69979;53.682;-2.690;2023-10-08T08:24:33;14;;;14;;
80619;SDS011;69979;53.682;-2.690;2023-10-08T08:26:58;16;;;14;;
80619;SDS011;69979;53.682;-2.690;2023-10-08T08:29:23;13;;;13;;
80619;SDS011;69979;53.682;-2.690;2023-10-08T08:31:49;17;;;16;;
80619;SDS011;69979;53.682;-2.690;2023-10-08T08:34:14;13;;;13;;
80619;SDS011;69979;53.682;-2.690;2023-10-08T08:36:39;15;;;14;;
80619;SDS011;69979;53.682;-2.690;2023-10-08T08:39:05;16;;;15;;
80619;SDS011;69979;53.682;-2.690;2023-10-08T08:41:30;13;;;13;;
80619;SDS011;69979;53.682;-2.690;2023-10-08T08:43:55;11;;;10;;
80619;SDS011;69979;53.682;-2.690;2023-10-08T08:46:21;12;;;11;;
80619;SDS011;69979;53.682;-2.690;2023-10-08T08:48:47;13;;;12;;
80619;SDS011;69979;53.682;-2.690;2023-10-08T08:51:12;12;;;12;;
80619;SDS011;69979;53.682;-2.690;2023-10-08T08:53:37;16;;;15;;
80619;SDS011;69979;53.682;-2.690;2023-10-08T08:56:02;13;;;11;;
80619;SDS011;69979;53.682;-2.690;2023-10-08T08:58:27;13;;;13;;
80619;SDS011;69979;53.682;-2.690;2023-10-08T09:00:52;13;;;12;;
80619;SDS011;69979;53.682;-2.690;2023-10-08T09:03:18;12;;;12;;
80619;SDS011;69979;53.682;-2.690;2023-10-08T09:05:43;14;;;13;;
80619;SDS011;69979;53.682;-2.690;2023-10-08T09:08:08;13;;;12;;
80619;SDS011;69979;53.682;-2.690;2023-10-08T09:10:37;16;;;14;;
80619;SDS011;69979;53.682;-2.690;2023-10-08T09:12:59;11;;;10;;
80619;SDS011;69979;53.682;-2.690;2023-10-08T09:15:24;12;;;12;;
80619;SDS011;69979;53.682;-2.690;2023-10-08T09:17:49;12;;;12;;
80619;SDS011;69979;53.682;-2.690;2023-10-08T09:20:15;15;;;15;;
80619;SDS011;69979;53.682;-2.690;2023-10-08T09:22:40;10;;;10;;
80619;SDS011;69979;53.682;-2.690;2023-10-08T09:25:06;10;;;10;;
80619;SDS011;69979;53.682;-2.690;2023-10-08T09:27:31;11;;;10;;
80619;SDS011;69979;53.682;-2.690;2023-10-08T09:29:56;10;;;10;;
80619;SDS011;69979;53.682;-2.690;2023-10-08T09:32:22;12;;;12;;
80619;SDS011;69979;53.682;-2.690;2023-10-08T09:34:47;15;;;15;;
80619;SDS011;69979;53.682;-2.690;2023-10-08T09:37:12;14;;;12;;
80619;SDS011;69979;53.682;-2.690;2023-10-08T09:39:37;15;;;15;;
80619;SDS011;69979;53.682;-2.690;2023-10-08T09:42:03;15;;;14;;
80619;SDS011;69979;53.682;-2.690;2023-10-08T09:44:29;12;;;12;;
80619;SDS011;69979;53.682;-2.690;2023-10-08T09:46:57;12;;;11;;
80619;SDS011;69979;53.682;-2.690;2023-10-08T09:49:20;12;;;10;;
80619;SDS011;69979;53.682;-2.690;2023-10-08T09:51:45;12;;;11;;
80619;SDS011;69979;53.682;-2.690;2023-10-08T09:54:11;12;;;12;;
80619;SDS011;69979;53.682;-2.690;2023-10-08T09:56:36;8;;;8;;
80619;SDS011;69979;53.682;-2.690;2023-10-08T09:59:00;12;;;11;;
80619;SDS011;69979;53.682;-2.690;2023-10-08T10:01:26;11;;;10;;
80619;SDS011;69979;53.682;-2.690;2023-10-08T10:03:51;13;;;13;;
80619;SDS011;69979;53.682;-2.690;2023-10-08T10:06:17;12;;;12;;
80619;SDS011;69979;53.682;-2.690;2023-10-08T10:08:43;12;;;12;;
80619;SDS011;69979;53.682;-2.690;2023-10-08T10:11:08;9;;;9;;
80619;SDS011;69979;53.682;-2.690;2023-10-08T10:13:34;15;;;14;;
80619;SDS011;69979;53.682;-2.690;2023-10-08T10:15:59;12;;;12;;
80619;SDS011;69979;53.682;-2.690;2023-10-08T10:18:27;11;;;11;;
80619;SDS011;69979;53.682;-2.690;2023-10-08T10:20:51;14;;;13;;
80619;SDS011;69979;53.682;-2.690;2023-10-08T10:25:40;14;;;14;;
80619;SDS011;69979;53.682;-2.690;2023-10-08T10:30:30;14;;;14;;
80619;SDS011;69979;53.682;-2.690;2023-10-08T10:32:55;11;;;11;;
80619;SDS011;69979;53.682;-2.690;2023-10-08T10:35:20;12;;;12;;
80619;SDS011;69979;53.682;-2.690;2023-10-08T10:37:46;15;;;12;;
80619;SDS011;69979;53.682;-2.690;2023-10-08T10:40:11;12;;;11;;
80619;SDS011;69979;53.682;-2.690;2023-10-08T10:42:36;13;;;13;;
80619;SDS011;69979;53.682;-2.690;2023-10-08T10:45:01;14;;;14;;
80619;SDS011;69979;53.682;-2.690;2023-10-08T10:47:27;20;;;16;;
80619;SDS011;69979;53.682;-2.690;2023-10-08T10:49:53;14;;;14;;
80619;SDS011;69979;53.682;-2.690;2023-10-08T10:52:19;13;;;12;;
80619;SDS011;69979;53.682;-2.690;2023-10-08T10:54:43;13;;;12;;
80619;SDS011;69979;53.682;-2.690;2023-10-08T10:57:08;14;;;14;;
80619;SDS011;69979;53.682;-2.690;2023-10-08T10:59:34;14;;;14;;
80619;SDS011;69979;53.682;-2.690;2023-10-08T11:01:59;12;;;12;;
80619;SDS011;69979;53.682;-2.690;2023-10-08T11:04:24;15;;;13;;
80619;SDS011;69979;53.682;-2.690;2023-10-08T11:06:50;11;;;11;;
80619;SDS011;69979;53.682;-2.690;2023-10-08T11:09:15;10;;;10;;
80619;SDS011;69979;53.682;-2.690;2023-10-08T11:11:40;11;;;9;;
80619;SDS011;69979;53.682;-2.690;2023-10-08T11:14:05;11;;;11;;
80619;SDS011;69979;53.682;-2.690;2023-10-08T11:16:31;12;;;11;;
80619;SDS011;69979;53.682;-2.690;2023-10-08T11:18:56;11;;;10;;
80619;SDS011;69979;53.682;-2.690;2023-10-08T11:21:21;11;;;10;;
80619;SDS011;69979;53.682;-2.690;2023-10-08T11:23:46;11;;;10;;
80619;SDS011;69979;53.682;-2.690;2023-10-08T11:26:11;14;;;13;;
80619;SDS011;69979;53.682;-2.690;2023-10-08T11:28:37;13;;;12;;
80619;SDS011;69979;53.682;-2.690;2023-10-08T11:31:03;13;;;12;;
80619;SDS011;69979;53.682;-2.690;2023-10-08T11:33:28;16;;;13;;
80619;SDS011;69979;53.682;-2.690;2023-10-08T11:35:58;14;;;12;;
80619;SDS011;69979;53.682;-2.690;2023-10-08T11:38:18;13;;;13;;
80619;SDS011;69979;53.682;-2.690;2023-10-08T11:40:43;13;;;12;;
80619;SDS011;69979;53.682;-2.690;2023-10-08T11:43:08;14;;;12;;
80619;SDS011;69979;53.682;-2.690;2023-10-08T11:45:33;10;;;9;;
80619;SDS011;69979;53.682;-2.690;2023-10-08T11:47:59;13;;;13;;
80619;SDS011;69979;53.682;-2.690;2023-10-08T11:50:24;9;;;9;;
80619;SDS011;69979;53.682;-2.690;2023-10-08T11:52:49;12;;;12;;
80619;SDS011;69979;53.682;-2.690;2023-10-08T11:55:15;11;;;10;;
80619;SDS011;69979;53.682;-2.690;2023-10-08T11:57:40;10;;;10;;
80619;SDS011;69979;53.682;-2.690;2023-10-08T12:00:06;12;;;11;;
80619;SDS011;69979;53.682;-2.690;2023-10-08T12:02:31;11;;;9;;
80619;SDS011;69979;53.682;-2.690;2023-10-08T12:04:57;10;;;9;;
80619;SDS011;69979;53.682;-2.690;2023-10-08T12:07:22;11;;;11;;
80619;SDS011;69979;53.682;-2.690;2023-10-08T12:09:47;11;;;10;;
80619;SDS011;69979;53.682;-2.690;2023-10-08T12:12:13;8;;;8;;
80619;SDS011;69979;53.682;-2.690;2023-10-08T12:14:38;12;;;9;;
80619;SDS011;69979;53.682;-2.690;2023-10-08T12:17:03;9;;;9;;
80619;SDS011;69979;53.682;-2.690;2023-10-08T12:19:28;11;;;9;;
80619;SDS011;69979;53.682;-2.690;2023-10-08T12:21:53;7;;;7;;
80619;SDS011;69979;53.682;-2.690;2023-10-08T12:24:19;9;;;9;;
80619;SDS011;69979;53.682;-2.690;2023-10-08T12:26:44;14;;;11;;
80619;SDS011;69979;53.682;-2.690;2023-10-08T12:29:09;9;;;9;;
80619;SDS011;69979;53.682;-2.690;2023-10-08T12:31:34;8;;;8;;
80619;SDS011;69979;53.682;-2.690;2023-10-08T12:34:00;8;;;8;;
80619;SDS011;69979;53.682;-2.690;2023-10-08T12:36:25;9;;;9;;
80619;SDS011;69979;53.682;-2.690;2023-10-08T12:38:50;8;;;8;;
80619;SDS011;69979;53.682;-2.690;2023-10-08T12:41:16;9;;;9;;
80619;SDS011;69979;53.682;-2.690;2023-10-08T12:43:42;12;;;12;;
80619;SDS011;69979;53.682;-2.690;2023-10-08T12:46:06;11;;;11;;
80619;SDS011;69979;53.682;-2.690;2023-10-08T12:48:32;13;;;13;;
80619;SDS011;69979;53.682;-2.690;2023-10-08T12:50:57;9;;;9;;
80619;SDS011;69979;53.682;-2.690;2023-10-08T12:53:22;8;;;8;;
80619;SDS011;69979;53.682;-2.690;2023-10-08T12:55:47;8;;;8;;
80619;SDS011;69979;53.682;-2.690;2023-10-08T12:58:13;9;;;9;;
80619;SDS011;69979;53.682;-2.690;2023-10-08T13:00:38;9;;;9;;
80619;SDS011;69979;53.682;-2.690;2023-10-08T13:03:03;10;;;9;;
80619;SDS011;69979;53.682;-2.690;2023-10-08T13:05:28;10;;;10;;
80619;SDS011;69979;53.682;-2.690;2023-10-08T13:07:54;10;;;8;;
80619;SDS011;69979;53.682;-2.690;2023-10-08T13:10:19;10;;;10;;
80619;SDS011;69979;53.682;-2.690;2023-10-08T13:12:45;9;;;9;;
80619;SDS011;69979;53.682;-2.690;2023-10-08T13:15:10;9;;;9;;
80619;SDS011;69979;53.682;-2.690;2023-10-08T13:17:35;9;;;9;;
80619;SDS011;69979;53.682;-2.690;2023-10-08T13:20:01;11;;;10;;
80619;SDS011;69979;53.682;-2.690;2023-10-08T13:22:26;11;;;11;;
80619;SDS011;69979;53.682;-2.690;2023-10-08T13:24:51;11;;;11;;
80619;SDS011;69979;53.682;-2.690;2023-10-08T13:27:16;7;;;7;;
80619;SDS011;69979;53.682;-2.690;2023-10-08T13:29:42;11;;;9;;
80619;SDS011;69979;53.682;-2.690;2023-10-08T13:32:07;8;;;7;;
80619;SDS011;69979;53.682;-2.690;2023-10-08T13:34:32;8;;;8;;
80619;SDS011;69979;53.682;-2.690;2023-10-08T13:36:58;9;;;9;;
80619;SDS011;69979;53.682;-2.690;2023-10-08T13:39:23;8;;;8;;
80619;SDS011;69979;53.682;-2.690;2023-10-08T13:41:48;6;;;6;;
80619;SDS011;69979;53.682;-2.690;2023-10-08T13:44:13;6;;;5;;
80619;SDS011;69979;53.682;-2.690;2023-10-08T13:46:38;7;;;7;;
80619;SDS011;69979;53.682;-2.690;2023-10-08T13:49:03;7;;;7;;
80619;SDS011;69979;53.682;-2.690;2023-10-08T13:51:29;7;;;6;;
80619;SDS011;69979;53.682;-2.690;2023-10-08T13:53:55;6;;;6;;
80619;SDS011;69979;53.682;-2.690;2023-10-08T13:56:20;9;;;8;;
80619;SDS011;69979;53.682;-2.690;2023-10-08T13:58:45;9;;;8;;
80619;SDS011;69979;53.682;-2.690;2023-10-08T14:01:10;8;;;8;;
80619;SDS011;69979;53.682;-2.690;2023-10-08T14:03:35;8;;;8;;
80619;SDS011;69979;53.682;-2.690;2023-10-08T14:06:00;5;;;5;;
80619;SDS011;69979;53.682;-2.690;2023-10-08T14:08:26;6;;;6;;
80619;SDS011;69979;53.682;-2.690;2023-10-08T14:10:51;6;;;6;;
80619;SDS011;69979;53.682;-2.690;2023-10-08T14:13:16;10;;;9;;
80619;SDS011;69979;53.682;-2.690;2023-10-08T14:15:41;9;;;8;;
80619;SDS011;69979;53.682;-2.690;2023-10-08T14:18:06;9;;;8;;
80619;SDS011;69979;53.682;-2.690;2023-10-08T14:20:32;8;;;7;;
80619;SDS011;69979;53.682;-2.690;2023-10-08T14:22:57;8;;;8;;
80619;SDS011;69979;53.682;-2.690;2023-10-08T14:25:23;10;;;10;;
80619;SDS011;69979;53.682;-2.690;2023-10-08T14:27:48;8;;;8;;
80619;SDS011;69979;53.682;-2.690;2023-10-08T14:30:13;8;;;8;;
80619;SDS011;69979;53.682;-2.690;2023-10-08T14:32:38;6;;;6;;
80619;SDS011;69979;53.682;-2.690;2023-10-08T14:35:04;6;;;6;;
80619;SDS011;69979;53.682;-2.690;2023-10-08T14:37:29;6;;;6;;
80619;SDS011;69979;53.682;-2.690;2023-10-08T14:39:54;7;;;7;;
80619;SDS011;69979;53.682;-2.690;2023-10-08T14:42:20;8;;;8;;
80619;SDS011;69979;53.682;-2.690;2023-10-08T14:44:45;7;;;7;;
80619;SDS011;69979;53.682;-2.690;2023-10-08T14:47:10;6;;;5;;
80619;SDS011;69979;53.682;-2.690;2023-10-08T14:49:35;6;;;6;;
80619;SDS011;69979;53.682;-2.690;2023-10-08T14:52:01;5;;;5;;
80619;SDS011;69979;53.682;-2.690;2023-10-08T14:54:26;6;;;6;;
80619;SDS011;69979;53.682;-2.690;2023-10-08T14:56:51;8;;;7;;
80619;SDS011;69979;53.682;-2.690;2023-10-08T14:59:17;6;;;6;;
80619;SDS011;69979;53.682;-2.690;2023-10-08T15:01:42;6;;;6;;
80619;SDS011;69979;53.682;-2.690;2023-10-08T15:04:07;7;;;7;;
80619;SDS011;69979;53.682;-2.690;2023-10-08T15:06:33;7;;;6;;
80619;SDS011;69979;53.682;-2.690;2023-10-08T15:08:58;8;;;7;;
80619;SDS011;69979;53.682;-2.690;2023-10-08T15:11:23;6;;;6;;
80619;SDS011;69979;53.682;-2.690;2023-10-08T15:13:48;7;;;7;;
80619;SDS011;69979;53.682;-2.690;2023-10-08T15:16:14;9;;;9;;
80619;SDS011;69979;53.682;-2.690;2023-10-08T15:18:39;9;;;7;;
80619;SDS011;69979;53.682;-2.690;2023-10-08T15:21:04;9;;;9;;
80619;SDS011;69979;53.682;-2.690;2023-10-08T15:23:30;9;;;9;;
80619;SDS011;69979;53.682;-2.690;2023-10-08T15:25:55;8;;;8;;
80619;SDS011;69979;53.682;-2.690;2023-10-08T15:28:20;6;;;6;;